createdAt,value
2024-02-02T00:01:00.442Z,1.40
2024-02-02T00:06:04.279Z,1.07
2024-02-02T00:11:09.365Z,0.90
2024-02-02T00:16:13.192Z,0.80
2024-02-02T00:21:16.940Z,1.10
2024-02-02T00:26:22.101Z,0.80
2024-02-02T00:31:25.819Z,0.90
2024-02-02T00:36:29.725Z,0.97
2024-02-02T00:41:34.952Z,1.27
2024-02-02T00:46:38.661Z,1.17
2024-02-02T00:51:43.240Z,0.93
2024-02-02T00:56:48.455Z,1.00
2024-02-02T01:01:52.445Z,0.80
2024-02-02T01:06:56.230Z,0.80
2024-02-02T01:12:01.435Z,1.60
2024-02-02T01:17:05.678Z,0.90
2024-02-02T01:22:09.369Z,1.20
2024-02-02T01:27:14.917Z,1.20
2024-02-02T01:32:18.617Z,0.83
2024-02-02T01:37:22.373Z,1.00
2024-02-02T01:42:27.522Z,0.77
2024-02-02T01:47:31.565Z,1.13
2024-02-02T01:52:35.369Z,1.07
2024-02-02T01:57:40.534Z,0.90
2024-02-02T02:02:44.289Z,0.77
2024-02-02T02:07:48.151Z,0.97
2024-02-02T02:12:53.267Z,1.50
2024-02-02T02:17:56.987Z,1.00
2024-02-02T02:23:02.827Z,0.90
2024-02-02T02:28:06.685Z,0.80
2024-02-02T02:33:10.493Z,0.90
2024-02-02T02:38:15.631Z,0.87
2024-02-02T02:43:19.301Z,0.50
2024-02-02T02:48:23.615Z,0.90
2024-02-02T02:53:28.999Z,0.93
2024-02-02T02:58:32.693Z,0.80
2024-02-02T03:03:36.482Z,0.73
2024-02-02T03:08:41.587Z,1.00
2024-02-02T03:13:45.292Z,0.87
2024-02-02T03:18:49.203Z,1.00
2024-02-02T03:23:54.712Z,0.97
2024-02-02T03:28:58.770Z,0.70
2024-02-02T03:34:02.613Z,0.80
2024-02-02T03:39:08.750Z,0.80
2024-02-02T03:44:12.505Z,0.90
2024-02-02T03:49:16.350Z,1.17
2024-02-02T03:54:21.530Z,1.00
2024-02-02T03:59:25.308Z,0.87
2024-02-02T04:04:30.228Z,1.20
2024-02-02T04:09:35.368Z,1.27
2024-02-02T04:14:39.134Z,1.10
2024-02-02T04:19:42.863Z,0.90
2024-02-02T04:24:47.992Z,1.60
2024-02-02T04:29:51.695Z,1.20
2024-02-02T04:34:55.488Z,1.00
2024-02-02T04:40:00.586Z,0.80
2024-02-02T04:45:04.433Z,0.70
2024-02-02T04:50:08.364Z,1.07
2024-02-02T04:55:14.318Z,1.10
2024-02-02T05:00:18.729Z,1.00
2024-02-02T05:05:22.682Z,0.90
2024-02-02T05:10:27.773Z,0.90
2024-02-02T05:15:31.582Z,0.73
2024-02-02T05:20:35.484Z,0.70
2024-02-02T05:25:40.740Z,1.00
2024-02-02T05:30:44.578Z,0.83
2024-02-02T05:35:48.775Z,1.00
2024-02-02T05:40:53.797Z,0.60
2024-02-02T05:45:57.510Z,0.90
2024-02-02T05:51:01.485Z,1.00
2024-02-02T05:56:06.850Z,0.97
2024-02-02T06:01:10.632Z,0.93
2024-02-02T06:06:14.463Z,1.20
2024-02-02T06:11:19.546Z,1.30
2024-02-02T06:16:23.253Z,0.87
2024-02-02T06:21:27.018Z,1.10
2024-02-02T06:26:32.083Z,1.10
2024-02-02T06:31:35.776Z,1.30
2024-02-02T06:36:39.692Z,0.90
2024-02-02T06:41:44.768Z,1.10
2024-02-02T06:46:48.440Z,1.30
2024-02-02T06:51:52.145Z,1.10
2024-02-02T06:56:57.375Z,0.90
2024-02-02T07:02:01.821Z,1.10
2024-02-02T07:07:06.013Z,0.77
2024-02-02T07:12:29.163Z,0.80
2024-02-02T07:17:36.517Z,1.17
2024-02-02T07:22:41.814Z,1.20
2024-02-02T07:27:55.791Z,1.23
2024-02-02T07:33:00.093Z,1.40
2024-02-02T07:38:06.564Z,1.37
2024-02-02T07:43:11.611Z,1.40
2024-02-02T07:48:15.372Z,1.10
2024-02-02T07:53:19.138Z,1.00
2024-02-02T07:58:24.185Z,1.07
2024-02-02T08:03:28.197Z,0.93
2024-02-02T08:08:33.842Z,1.00
2024-02-02T08:13:38.918Z,1.10
2024-02-02T08:18:43.341Z,1.37
2024-02-02T08:23:47.325Z,1.00
2024-02-02T08:28:55.158Z,0.87
2024-02-02T08:33:59.462Z,1.13
2024-02-02T08:39:03.812Z,1.30
2024-02-02T08:44:20.929Z,1.70
2024-02-02T08:49:47.002Z,1.33
2024-02-02T08:54:51.572Z,1.50
2024-02-02T08:59:56.796Z,1.33
2024-02-02T09:05:20.913Z,1.27
2024-02-02T09:10:58.052Z,1.27
2024-02-02T09:16:03.185Z,1.40
2024-02-02T09:21:08.586Z,1.33
2024-02-02T09:26:13.416Z,1.30
2024-02-02T09:31:23.448Z,1.10
2024-02-02T09:36:28.511Z,1.13
2024-02-02T09:41:58.926Z,0.87
2024-02-02T09:47:20.626Z,1.20
2024-02-02T09:52:36.015Z,0.90
2024-02-02T09:57:47.456Z,1.30
2024-02-02T10:03:08.866Z,1.13
2024-02-02T10:08:28.842Z,1.20
2024-02-02T10:13:51.671Z,1.27
2024-02-02T10:19:23.085Z,1.10
2024-02-02T10:24:41.144Z,0.90
2024-02-02T10:29:53.672Z,0.67
2024-02-02T10:35:16.505Z,0.90
2024-02-02T10:40:40.766Z,0.80
2024-02-02T10:45:54.268Z,1.00
2024-02-02T10:51:05.042Z,0.93
2024-02-02T10:56:23.757Z,1.07
2024-02-02T11:01:37.305Z,0.83
2024-02-02T11:06:49.459Z,0.93
2024-02-02T11:12:01.527Z,0.90
2024-02-02T11:17:15.596Z,0.77
2024-02-02T11:22:27.335Z,0.70
2024-02-02T11:27:41.477Z,1.03
2024-02-02T11:33:17.966Z,1.20
2024-02-02T11:38:30.372Z,1.40
2024-02-02T11:43:35.030Z,1.00
2024-02-02T11:48:41.583Z,0.70
2024-02-02T11:53:54.567Z,0.97
2024-02-02T11:59:05.690Z,0.90
2024-02-02T12:04:25.670Z,0.67
2024-02-02T12:09:39.234Z,0.83
2024-02-02T12:14:48.730Z,0.80
2024-02-02T12:19:52.876Z,1.03
2024-02-02T12:24:58.019Z,1.33
2024-02-02T12:30:02.375Z,1.00
2024-02-02T12:35:07.013Z,1.27
2024-02-02T12:40:13.765Z,1.23
2024-02-02T12:45:18.919Z,0.80
2024-02-02T12:50:23.756Z,0.97
2024-02-02T12:55:28.917Z,1.10
2024-02-02T13:00:32.664Z,0.70
2024-02-02T13:05:38.502Z,0.83
2024-02-02T13:10:48.996Z,0.90
2024-02-02T13:15:52.804Z,0.87
2024-02-02T13:20:56.722Z,0.80
2024-02-02T13:26:07.483Z,0.60
2024-02-02T13:31:14.449Z,0.97
2024-02-02T13:36:19.220Z,0.70
2024-02-02T13:41:24.720Z,0.87
2024-02-02T13:46:28.704Z,1.13
2024-02-02T13:51:34.914Z,0.83
2024-02-02T13:56:40.542Z,0.87
2024-02-02T14:01:44.294Z,0.60
2024-02-02T14:06:48.046Z,0.70
2024-02-02T14:12:01.445Z,0.80
2024-02-02T14:17:06.173Z,0.70
2024-02-02T14:22:11.990Z,0.70
2024-02-02T14:27:17.360Z,0.70
2024-02-02T14:32:21.114Z,0.80
2024-02-02T14:37:25.013Z,0.53
2024-02-02T14:42:30.320Z,0.60
2024-02-02T14:47:34.244Z,0.90
2024-02-02T14:52:38.150Z,0.70
2024-02-02T14:57:43.499Z,0.60
2024-02-02T15:02:47.916Z,0.93
2024-02-02T15:07:51.818Z,0.70
2024-02-02T15:12:58.059Z,0.80
2024-02-02T15:18:02.299Z,0.90
2024-02-02T15:23:06.346Z,0.90
2024-02-02T15:28:11.466Z,0.87
2024-02-02T15:33:15.286Z,0.80
2024-02-02T15:38:19.000Z,0.70
2024-02-02T15:43:24.155Z,0.83
2024-02-02T15:48:28.058Z,1.10
2024-02-02T15:53:32.318Z,1.10
2024-02-02T15:58:37.433Z,1.10
2024-02-02T16:03:41.623Z,1.60
2024-02-02T16:08:45.518Z,0.80
2024-02-02T16:13:51.192Z,1.00
2024-02-02T16:18:55.059Z,1.10
2024-02-02T16:23:58.975Z,0.83
2024-02-02T16:29:04.108Z,1.10
2024-02-02T16:34:07.871Z,0.90
2024-02-02T16:39:13.532Z,0.87
2024-02-02T16:44:18.787Z,1.53
2024-02-02T16:49:22.632Z,1.00
2024-02-02T16:54:26.694Z,1.00
2024-02-02T16:59:31.828Z,1.10
2024-02-02T17:04:35.669Z,1.10
2024-02-02T17:09:39.972Z,1.23
2024-02-02T17:14:46.440Z,1.20
2024-02-02T17:19:50.303Z,1.37
2024-02-02T17:24:54.650Z,1.50
2024-02-02T17:29:59.748Z,1.83
2024-02-02T17:35:05.232Z,2.00
2024-02-02T17:40:10.471Z,1.33
2024-02-02T17:45:15.709Z,1.37
2024-02-02T17:50:19.860Z,1.23
2024-02-02T17:55:26.188Z,2.00
2024-02-02T18:00:31.338Z,2.20
2024-02-02T18:05:35.089Z,2.67
2024-02-02T18:10:38.764Z,2.00
2024-02-02T18:15:44.467Z,2.03
2024-02-02T18:20:49.137Z,2.37
2024-02-02T18:25:52.898Z,1.83
2024-02-02T18:30:58.050Z,1.80
2024-02-02T18:36:03.295Z,1.87
2024-02-02T18:41:09.386Z,2.20
2024-02-02T18:46:14.562Z,2.03
2024-02-02T18:51:18.379Z,1.63
2024-02-02T18:56:22.200Z,1.80
2024-02-02T19:01:30.637Z,1.43
2024-02-02T19:06:39.377Z,1.70
2024-02-02T19:11:43.315Z,1.90
2024-02-02T19:16:48.395Z,2.10
2024-02-02T19:21:54.057Z,2.00
2024-02-02T19:26:57.853Z,2.10
2024-02-02T19:32:02.930Z,2.20
2024-02-02T19:37:06.838Z,1.93
2024-02-02T19:42:10.525Z,1.70
2024-02-02T19:47:15.600Z,2.00
2024-02-02T19:52:19.342Z,1.73
2024-02-02T19:57:23.150Z,1.50
2024-02-02T20:02:30.370Z,2.10
2024-02-02T20:07:34.182Z,2.13
2024-02-02T20:12:38.128Z,1.93
2024-02-02T20:17:43.409Z,1.70
2024-02-02T20:22:47.172Z,1.70
2024-02-02T20:27:50.938Z,2.00
2024-02-02T20:32:56.044Z,1.77
2024-02-02T20:38:00.212Z,1.50
2024-02-02T20:43:03.919Z,1.60
2024-02-02T20:48:09.462Z,1.40
2024-02-02T20:53:13.251Z,1.90
2024-02-02T20:58:17.014Z,1.73
2024-02-02T21:03:24.363Z,1.80
2024-02-02T21:08:28.272Z,2.00
2024-02-02T21:13:32.044Z,1.90
2024-02-02T21:18:37.276Z,1.90
2024-02-02T21:23:46.129Z,2.10
2024-02-02T21:28:49.893Z,2.50
2024-02-02T21:33:56.383Z,2.27
2024-02-02T21:39:00.256Z,1.97
2024-02-02T21:44:04.625Z,2.10
2024-02-02T21:49:11.501Z,2.50
2024-02-02T21:54:15.432Z,2.43
2024-02-02T21:59:19.260Z,2.60
2024-02-02T22:04:24.321Z,2.80
2024-02-02T22:09:28.014Z,1.77
2024-02-02T22:14:34.919Z,2.87
2024-02-02T22:19:41.130Z,2.60
2024-02-02T22:24:45.382Z,3.30
2024-02-02T22:29:49.392Z,2.70
2024-02-02T22:34:54.550Z,3.47
2024-02-02T22:39:58.753Z,2.40
2024-02-02T22:45:03.677Z,3.03
2024-02-02T22:50:11.151Z,2.47
2024-02-02T22:55:16.413Z,2.77
2024-02-02T23:00:22.559Z,2.70
2024-02-02T23:05:27.750Z,2.13
2024-02-02T23:10:31.473Z,2.07
2024-02-02T23:15:35.261Z,1.80
2024-02-02T23:20:40.540Z,2.50
2024-02-02T23:25:45.164Z,2.00
2024-02-02T23:30:49.538Z,1.60
2024-02-02T23:35:54.680Z,1.80
2024-02-02T23:40:59.956Z,1.70
2024-02-02T23:46:03.928Z,1.53
2024-02-02T23:51:09.122Z,2.23
2024-02-02T23:56:12.876Z,1.73
